KPHN/PHN METAR and TAF weather

Enter ICAO airport designator
Station Type Date Time Source
KPHN METAR 2022/08/12 14:55 UTC NOAA

KPHN 121455Z AUTO 03004KT 10SM CLR 22/13 A3022 RMK AO2


Station Type Date Time Source
KPHN Decoded METAR 2022/08/12 14:55 UTC NOAA

St. Clair County International, MI, United States (KPHN) 42-55N 082-32W
Aug 12, 2022 - 10:55 AM EDT / 2022.08.12 1455 UTC
Wind: from the NNE (030 degrees) at 5 MPH (4 KT):0
Visibility: 10 mile(s):0
Sky conditions: clear
Temperature: 71 F (22 C)
Dew Point: 55 F (13 C)
Relative Humidity: 56%
Pressure (altimeter): 30.22 in. Hg (1023 hPa)
ob: KPHN 121455Z AUTO 03004KT 10SM CLR 22/13 A3022 RMK AO2
cycle: 15

Station Type Date Time Source
KPHN TAF UTC NOAA

Error!

Example: see airport list